Mount Wolf, Pennsylvania
Current Conditions -  °F | °C
As of 8:56 AM on Saturday 25 Oct 2014 (Local Time) from KMDT Reporting Station
Few Clouds Few Clouds  
Wind Chill: 50°   Ceiling: Unl
Heat Index: 50°   Visibility: 10mi
Dew Point: 44°   Wind: 0mph
Humidity: 80%   Direction: NA
Pressure: 29.93"   Gusts: NA
Location:  40.06°N, 76.7°W
Report Text: KMDT 251256Z 00000KT 10SM FEW200 10/07 A2993 RMK AO2 SLP136 T01000067
Loading
Personal Weather Stations






























Interactive Weather Map
Tropical Storm Tracking
New forecast layout! Learn more

10-Day Weather Forecast

Advertisements
Track Severe Weather on mobile